Time;durP1;ratioP1;P1;durP2;ratioP2;P2;SDS_P1;SDS_P2;PMS_P1;PMS_P2;Temp;Humidity;BMP_temperature;BMP_pressure;BME280_temperature;BME280_humidity;BME280_pressure;Samples;Min_cycle;Max_cycle;Signal;HPM_P1;HPM_P2
2023/01/04 00:02:47;;;;;;;9.60;8.90;;;8.60;99.90;;;;;;10365514;28;20309;-80
2023/01/04 00:07:50;;;;;;;10.47;9.57;;;8.60;99.90;;;;;;10383785;28;20297;-82
2023/01/04 00:12:52;;;;;;;9.73;8.93;;;8.50;99.90;;;;;;10395518;28;20229;-83
2023/01/04 00:17:54;;;;;;;11.73;10.53;;;8.50;99.90;;;;;;10381156;28;20278;-81
2023/01/04 00:22:58;;;;;;;9.73;8.87;;;8.50;99.90;;;;;;10375890;28;20674;-82
2023/01/04 00:28:00;;;;;;;10.00;9.30;;;8.40;99.90;;;;;;10374185;28;20228;-81
2023/01/04 00:33:02;;;;;;;13.63;8.40;;;8.30;99.90;;;;;;10377422;28;20593;-83
2023/01/04 00:38:05;;;;;;;10.20;9.30;;;8.30;99.90;;;;;;10377425;28;20218;-80
2023/01/04 00:43:07;;;;;;;8.90;8.13;;;8.30;99.90;;;;;;10378908;28;20206;-82
2023/01/04 00:48:09;;;;;;;9.43;8.73;;;8.30;99.90;;;;;;10380872;28;20274;-82
2023/01/04 00:53:14;;;;;;;9.07;8.37;;;8.30;99.90;;;;;;10375841;28;20210;-82
2023/01/04 00:58:16;;;;;;;9.07;8.37;;;8.20;99.90;;;;;;10377653;28;20248;-79
2023/01/04 01:03:18;;;;;;;8.90;8.30;;;8.10;99.90;;;;;;10377557;28;20272;-80
2023/01/04 01:08:24;;;;;;;9.70;8.90;;;8.10;99.90;;;;;;10376794;28;20222;-83
2023/01/04 01:13:26;;;;;;;8.30;7.70;;;8.10;99.90;;;;;;10380848;28;20210;-80
2023/01/04 01:18:29;;;;;;;9.20;8.40;;;8.10;99.90;;;;;;10386464;28;20183;-78
2023/01/04 01:23:32;;;;;;;8.00;7.40;;;8.10;99.90;;;;;;10381674;28;20321;-81
2023/01/04 01:28:35;;;;;;;8.27;7.57;;;8.10;99.90;;;;;;10376629;28;20210;-82
2023/01/04 01:33:38;;;;;;;8.10;7.50;;;8.20;99.90;;;;;;10373370;28;20254;-80
2023/01/04 01:38:42;;;;;;;7.70;7.07;;;8.10;99.90;;;;;;10371832;28;20205;-80
2023/01/04 01:44:04;;;;;;;8.90;8.20;;;8.10;99.90;;;;;;10373066;28;20209;-80
2023/01/04 01:49:12;;;;;;;8.03;7.33;;;8.10;99.90;;;;;;10374744;28;20244;-80
2023/01/04 01:54:25;;;;;;;8.03;7.43;;;8.10;99.90;;;;;;10377077;28;20577;-80
2023/01/04 01:59:28;;;;;;;7.63;7.03;;;8.10;99.90;;;;;;10382332;28;20309;-80
2023/01/04 02:04:31;;;;;;;7.73;7.13;;;8.00;99.90;;;;;;10369423;28;20201;-80
2023/01/04 02:09:35;;;;;;;8.13;7.50;;;7.80;99.90;;;;;;10373451;28;20233;-80
2023/01/04 02:14:37;;;;;;;7.70;7.10;;;7.70;99.90;;;;;;10373458;28;20209;-80
2023/01/04 02:20:00;;;;;;;8.10;7.50;;;7.50;99.90;;;;;;10376236;28;20298;-80
2023/01/04 02:25:46;;;;;;;8.40;7.70;;;7.50;99.90;;;;;;10382008;28;20212;-80
2023/01/04 02:31:09;;;;;;;6.33;5.90;;;7.40;99.90;;;;;;10346223;28;20714;-80
2023/01/04 02:36:19;;;;;;;7.50;6.87;;;7.40;99.90;;;;;;10380762;28;20596;-80
2023/01/04 02:41:27;;;;;;;7.50;6.90;;;7.40;99.90;;;;;;10379872;28;20217;-80
2023/01/04 02:46:34;;;;;;;7.73;7.17;;;7.30;99.90;;;;;;10381857;28;20206;-80
2023/01/04 02:51:38;;;;;;;9.40;8.50;;;7.30;99.90;;;;;;10381165;28;20277;-80
2023/01/04 02:56:59;;;;;;;9.30;8.30;;;7.40;99.90;;;;;;10389757;28;20201;-81
2023/01/04 03:07:39;;;;;;;6.60;6.17;;;7.60;99.90;;;;;;10386797;28;20234;-80
2023/01/04 03:12:46;;;;;;;6.60;6.13;;;7.70;99.90;;;;;;10393769;28;20246;-80
2023/01/04 03:17:53;;;;;;;5.50;5.10;;;7.80;99.90;;;;;;10382897;28;20187;-80
2023/01/04 03:49:58;;;;;;;5.90;5.50;;;7.80;99.90;;;;;;10376642;28;20595;-80
2023/01/04 03:55:02;;;;;;;5.40;5.10;;;7.80;99.90;;;;;;10380120;28;20286;-80
2023/01/04 04:00:09;;;;;;;5.47;5.00;;;7.70;99.90;;;;;;10383094;28;20274;-80
2023/01/04 04:10:37;;;;;;;6.63;4.90;;;7.80;99.90;;;;;;10380610;28;20245;-80
2023/01/04 04:15:39;;;;;;;4.40;4.10;;;7.90;99.90;;;;;;10382060;28;20571;-80
2023/01/04 04:20:43;;;;;;;5.43;4.93;;;8.00;99.90;;;;;;10386373;28;20214;-80
2023/01/04 04:25:45;;;;;;;7.97;6.27;;;8.10;99.90;;;;;;10388243;28;20191;-80
2023/01/04 04:30:49;;;;;;;4.47;4.17;;;8.30;99.90;;;;;;10391995;28;20317;-80
2023/01/04 04:35:53;;;;;;;4.17;3.97;;;8.30;99.90;;;;;;10383356;28;20229;-80
2023/01/04 04:46:15;;;;;;;3.97;3.77;;;8.50;99.90;;;;;;10377243;28;20294;-80
2023/01/04 04:51:18;;;;;;;4.80;4.50;;;8.60;99.90;;;;;;10377623;28;20214;-80
2023/01/04 04:56:20;;;;;;;3.87;3.67;;;8.60;99.80;;;;;;10377525;28;20198;-80
2023/01/04 05:01:22;;;;;;;4.17;3.97;;;8.70;99.80;;;;;;10373420;28;20222;-80
2023/01/04 05:06:28;;;;;;;4.17;3.90;;;8.70;99.90;;;;;;10378227;28;20554;-80
2023/01/04 05:16:49;;;;;;;4.27;3.67;;;8.80;99.80;;;;;;10379602;28;20221;-81
2023/01/04 05:21:52;;;;;;;4.60;4.30;;;8.80;99.60;;;;;;10390715;28;20218;-81
2023/01/04 05:26:54;;;;;;;3.57;3.37;;;8.70;99.90;;;;;;10382895;28;20221;-81
2023/01/04 05:31:56;;;;;;;3.87;3.57;;;8.80;99.90;;;;;;10380726;28;20234;-82
2023/01/04 05:37:00;;;;;;;3.77;3.57;;;8.80;99.90;;;;;;10380870;28;20191;-80
2023/01/04 05:47:33;;;;;;;4.03;3.83;;;9.00;99.90;;;;;;10303234;28;20218;-79
2023/01/04 05:52:37;;;;;;;3.70;3.50;;;9.00;99.90;;;;;;10355537;28;20223;-82
2023/01/04 05:57:39;;;;;;;3.73;3.53;;;9.10;99.90;;;;;;10383803;28;20190;-83
2023/01/04 06:02:42;;;;;;;4.77;3.40;;;9.10;99.90;;;;;;10387914;28;20586;-82
2023/01/04 06:07:45;;;;;;;3.90;3.70;;;9.20;99.90;;;;;;10392871;28;20396;-81
2023/01/04 06:12:48;;;;;;;3.90;3.70;;;9.30;99.70;;;;;;10396049;28;20762;-80
2023/01/04 06:17:50;;;;;;;3.93;3.53;;;9.20;99.90;;;;;;10377880;28;20200;-81
2023/01/04 06:22:53;;;;;;;4.53;4.13;;;9.20;99.90;;;;;;10383770;28;20214;-82
2023/01/04 06:27:55;;;;;;;4.53;4.20;;;9.30;99.90;;;;;;10383463;28;20754;-81
2023/01/04 06:32:57;;;;;;;3.30;3.10;;;9.30;99.90;;;;;;10380132;28;20616;-82
2023/01/04 06:38:01;;;;;;;3.50;3.30;;;9.30;99.80;;;;;;10382168;28;20190;-81
2023/01/04 06:43:03;;;;;;;12.20;5.33;;;9.30;99.90;;;;;;10381203;28;20233;-80
2023/01/04 06:48:05;;;;;;;4.40;4.00;;;9.30;99.90;;;;;;10379614;28;20219;-82
2023/01/04 06:53:09;;;;;;;4.70;3.80;;;9.40;99.90;;;;;;10378167;28;20590;-82
2023/01/04 06:58:11;;;;;;;3.90;3.60;;;9.40;99.70;;;;;;10378967;28;20212;-81
2023/01/04 07:03:13;;;;;;;3.90;3.60;;;9.40;99.90;;;;;;10381785;28;20272;-79
2023/01/04 07:08:17;;;;;;;3.70;3.40;;;9.50;99.70;;;;;;10362357;28;20217;-80
2023/01/04 07:13:19;;;;;;;5.03;2.83;;;9.40;99.70;;;;;;10380894;28;20221;-80
2023/01/04 07:18:21;;;;;;;4.10;3.80;;;9.40;99.40;;;;;;10379458;28;20309;-80
2023/01/04 07:23:24;;;;;;;3.83;3.60;;;9.40;99.70;;;;;;10381790;28;20222;-79
2023/01/04 07:33:49;;;;;;;3.20;2.90;;;9.40;99.90;;;;;;10371480;28;20201;-80
2023/01/04 07:38:53;;;;;;;3.13;2.93;;;9.40;99.90;;;;;;10385866;28;20221;-80
2023/01/04 07:43:55;;;;;;;3.03;2.83;;;9.30;99.90;;;;;;10387582;28;20202;-80
2023/01/04 07:48:57;;;;;;;4.77;4.00;;;9.30;99.90;;;;;;10380980;28;20710;-80
2023/01/04 07:54:00;;;;;;;4.23;3.90;;;9.10;99.90;;;;;;10392060;28;20238;-80
2023/01/04 07:59:05;;;;;;;4.43;4.13;;;9.00;99.90;;;;;;10362417;28;20629;-80
2023/01/04 08:04:09;;;;;;;4.90;4.53;;;8.90;99.90;;;;;;10380224;28;20199;-81
2023/01/04 08:09:12;;;;;;;4.70;4.37;;;8.80;99.90;;;;;;10379817;28;20222;-80
2023/01/04 08:14:15;;;;;;;4.90;4.60;;;8.70;99.90;;;;;;10383138;28;20194;-80
2023/01/04 08:19:19;;;;;;;3.63;3.50;;;8.50;99.90;;;;;;10381025;28;20217;-80
2023/01/04 08:24:22;;;;;;;4.90;4.57;;;8.50;99.90;;;;;;10376579;28;20207;-79
2023/01/04 08:29:25;;;;;;;4.70;4.30;;;8.30;99.90;;;;;;10380266;28;20245;-80
2023/01/04 08:34:27;;;;;;;5.00;4.57;;;8.30;99.90;;;;;;10379761;28;20260;-79
2023/01/04 08:39:34;;;;;;;4.87;4.67;;;8.30;99.90;;;;;;10380119;28;20648;-80
2023/01/04 08:44:36;;;;;;;4.40;4.10;;;8.20;99.90;;;;;;10379008;28;20205;-80
2023/01/04 08:49:38;;;;;;;3.83;3.63;;;8.20;99.90;;;;;;10378068;28;20714;-80
2023/01/04 08:54:41;;;;;;;4.70;4.30;;;8.30;99.90;;;;;;10378355;28;20254;-80
2023/01/04 08:59:43;;;;;;;4.43;4.20;;;8.30;99.90;;;;;;10378734;28;20225;-80
2023/01/04 09:04:45;;;;;;;3.30;2.37;;;8.30;99.90;;;;;;10379893;28;20194;-81
2023/01/04 09:09:49;;;;;;;2.70;2.50;;;8.40;99.90;;;;;;10380472;28;20671;-81
2023/01/04 09:14:51;;;;;;;2.87;2.70;;;8.50;99.90;;;;;;10385589;28;20225;-80
2023/01/04 09:19:53;;;;;;;3.30;3.10;;;8.60;99.90;;;;;;10379772;28;20207;-80
2023/01/04 09:24:56;;;;;;;3.63;3.43;;;8.60;99.90;;;;;;10380711;28;20273;-80
2023/01/04 09:29:58;;;;;;;2.70;2.50;;;8.70;99.90;;;;;;10375065;28;20232;-80
2023/01/04 09:35:00;;;;;;;3.50;3.30;;;8.90;99.90;;;;;;10376659;28;20651;-80
2023/01/04 09:40:05;;;;;;;2.90;2.80;;;9.00;99.90;;;;;;10374562;28;20261;-83
2023/01/04 09:45:17;;;;;;;3.27;3.07;;;9.20;99.90;;;;;;10377389;28;20241;-81
2023/01/04 09:50:23;;;;;;;2.63;2.43;;;9.30;99.90;;;;;;10359710;28;20706;-83
2023/01/04 09:55:32;;;;;;;2.70;2.60;;;9.40;99.90;;;;;;10378270;28;20194;-79
2023/01/04 10:00:37;;;;;;;3.53;2.70;;;9.50;99.90;;;;;;10375411;28;20216;-80
2023/01/04 10:05:40;;;;;;;2.60;2.40;;;9.60;99.90;;;;;;10376187;28;20680;-83
2023/01/04 10:10:52;;;;;;;2.97;2.77;;;9.70;99.90;;;;;;10377858;28;20225;-82
2023/01/04 10:16:07;;;;;;;3.03;2.83;;;9.80;99.90;;;;;;10377665;28;20206;-83
2023/01/04 10:21:31;;;;;;;2.50;2.40;;;9.90;99.90;;;;;;10386105;28;20220;-81
2023/01/04 10:26:40;;;;;;;2.33;2.17;;;9.90;99.90;;;;;;10375956;28;20665;-81
2023/01/04 10:31:46;;;;;;;2.33;2.23;;;9.90;99.90;;;;;;10373775;28;20217;-83
2023/01/04 10:36:51;;;;;;;4.20;2.90;;;10.00;99.90;;;;;;10376447;28;20199;-83
2023/01/04 10:41:58;;;;;;;2.30;2.17;;;9.90;99.90;;;;;;10381827;28;20214;-80
2023/01/04 10:47:07;;;;;;;2.37;2.27;;;10.00;99.90;;;;;;10383884;28;20218;-83
2023/01/04 10:52:14;;;;;;;2.70;2.50;;;10.10;99.90;;;;;;10391771;28;20219;-82
2023/01/04 10:57:24;;;;;;;2.73;2.53;;;10.20;99.90;;;;;;10382023;28;20190;-83
2023/01/04 11:02:33;;;;;;;2.00;1.80;;;10.30;99.90;;;;;;10385572;28;20256;-82
2023/01/04 11:07:39;;;;;;;2.43;2.33;;;10.40;99.90;;;;;;10381253;28;20206;-83
2023/01/04 11:12:44;;;;;;;2.47;2.27;;;10.50;99.90;;;;;;10383884;28;20277;-81
2023/01/04 11:17:48;;;;;;;2.33;2.20;;;10.60;99.90;;;;;;10379605;28;20266;-82
2023/01/04 11:22:55;;;;;;;2.07;1.97;;;10.70;99.70;;;;;;10364490;28;20702;-83
2023/01/04 11:28:05;;;;;;;2.20;2.10;;;10.70;99.70;;;;;;10380323;28;20297;-83
2023/01/04 11:33:14;;;;;;;2.60;2.40;;;10.80;99.60;;;;;;10380397;28;20591;-83
2023/01/04 11:38:18;;;;;;;2.20;2.00;;;10.90;99.50;;;;;;10383667;28;20190;-79
2023/01/04 11:43:23;;;;;;;2.20;2.00;;;10.90;99.80;;;;;;10390732;28;20512;-81
2023/01/04 11:48:42;;;;;;;2.30;2.20;;;10.90;99.70;;;;;;10379750;28;20206;-82
2023/01/04 11:53:44;;;;;;;2.20;2.10;;;11.00;99.30;;;;;;10377709;28;20249;-83
2023/01/04 11:59:10;;;;;;;1.93;1.83;;;11.00;99.30;;;;;;10382923;28;20230;-83
2023/01/04 12:04:16;;;;;;;2.83;2.60;;;11.10;99.90;;;;;;10402514;28;20221;-82
2023/01/04 12:09:19;;;;;;;2.23;2.00;;;11.10;99.90;;;;;;10397343;28;20211;-82
2023/01/04 12:14:25;;;;;;;2.60;2.40;;;11.10;99.70;;;;;;10386363;28;20234;-82
2023/01/04 12:19:29;;;;;;;2.10;2.00;;;11.20;99.90;;;;;;10406460;28;20217;-78
2023/01/04 12:24:33;;;;;;;2.13;2.03;;;11.20;99.90;;;;;;10413220;28;20208;-79
2023/01/04 12:29:54;;;;;;;2.97;2.47;;;11.20;99.90;;;;;;10442880;28;20237;-80
2023/01/04 12:34:57;;;;;;;2.30;2.10;;;11.30;99.90;;;;;;10404190;28;20273;-81
2023/01/04 12:39:59;;;;;;;2.30;2.10;;;11.40;99.90;;;;;;10387997;28;20241;-80
2023/01/04 12:45:19;;;;;;;2.70;1.93;;;11.40;99.90;;;;;;10377720;28;20286;-80
2023/01/04 12:50:25;;;;;;;2.00;1.80;;;11.50;99.90;;;;;;10376652;28;20238;-80
2023/01/04 12:55:52;;;;;;;3.13;2.00;;;11.60;99.90;;;;;;10375357;28;20201;-80
2023/01/04 13:01:22;;;;;;;2.27;2.07;;;11.60;99.90;;;;;;10380688;28;20321;-81
2023/01/04 13:06:28;;;;;;;2.37;2.13;;;11.70;99.90;;;;;;10372428;28;20251;-81
2023/01/04 13:11:45;;;;;;;2.60;2.40;;;11.70;99.90;;;;;;10376762;28;20228;-81
2023/01/04 13:16:57;;;;;;;2.30;2.10;;;11.80;99.90;;;;;;10371387;28;20213;-79
2023/01/04 13:22:00;;;;;;;2.33;2.13;;;11.80;99.90;;;;;;10368813;28;20211;-79
2023/01/04 13:27:06;;;;;;;2.60;2.27;;;11.80;99.90;;;;;;10368943;28;20298;-79
2023/01/04 13:32:12;;;;;;;1.90;1.80;;;11.90;99.90;;;;;;10389292;28;20218;-81
2023/01/04 13:37:23;;;;;;;1.80;1.40;;;11.90;99.90;;;;;;10405795;28;20216;-79
2023/01/04 13:42:28;;;;;;;2.50;2.03;;;11.90;99.90;;;;;;10401337;28;20217;-83
2023/01/04 13:47:35;;;;;;;2.00;1.90;;;11.90;99.90;;;;;;10399858;28;20202;-83
2023/01/04 13:52:37;;;;;;;2.80;2.00;;;12.00;99.90;;;;;;10399863;28;20229;-84
2023/01/04 13:57:39;;;;;;;2.00;1.90;;;11.90;99.90;;;;;;10391964;28;20260;-82
2023/01/04 14:02:43;;;;;;;2.40;2.30;;;11.90;99.90;;;;;;10397723;28;20229;-80
2023/01/04 14:07:45;;;;;;;3.50;2.10;;;11.90;99.90;;;;;;10384618;28;20194;-79
2023/01/04 14:12:47;;;;;;;1.37;1.27;;;12.00;99.90;;;;;;10369705;28;20305;-79
2023/01/04 14:17:52;;;;;;;1.80;1.70;;;12.00;99.90;;;;;;10378809;28;20205;-80
2023/01/04 14:22:56;;;;;;;1.93;1.83;;;12.00;99.90;;;;;;10378692;28;20217;-79
2023/01/04 14:28:26;;;;;;;2.90;2.20;;;12.00;99.90;;;;;;10378538;28;20217;-79
2023/01/04 14:33:34;;;;;;;2.30;1.90;;;12.00;99.90;;;;;;10382309;28;20250;-81
2023/01/04 14:38:38;;;;;;;1.93;1.83;;;12.00;99.90;;;;;;10377801;28;20187;-79
2023/01/04 14:43:46;;;;;;;2.47;1.40;;;12.10;99.90;;;;;;10359325;28;20222;-80
2023/01/04 14:48:49;;;;;;;1.60;1.50;;;12.00;99.90;;;;;;10359501;28;20564;-80
2023/01/04 14:53:53;;;;;;;2.10;2.00;;;12.00;99.90;;;;;;10376741;28;20194;-82
2023/01/04 14:58:55;;;;;;;2.60;1.87;;;12.00;99.90;;;;;;10375437;28;20545;-79
2023/01/04 15:03:59;;;;;;;2.10;2.00;;;12.00;99.90;;;;;;10376585;28;20278;-80
2023/01/04 15:09:01;;;;;;;2.07;1.97;;;12.00;99.90;;;;;;10376988;28;20209;-79
2023/01/04 15:14:03;;;;;;;2.30;2.20;;;12.00;99.90;;;;;;10378196;28;20206;-79
2023/01/04 15:19:06;;;;;;;2.00;1.90;;;12.00;99.90;;;;;;10377692;28;20241;-80
2023/01/04 15:24:09;;;;;;;3.73;1.90;;;12.00;99.90;;;;;;10375305;28;20191;-80
2023/01/04 15:29:11;;;;;;;2.57;2.37;;;11.90;99.90;;;;;;10373800;28;20226;-80
2023/01/04 15:34:14;;;;;;;2.53;1.93;;;11.90;99.90;;;;;;10379985;28;20186;-81
2023/01/04 15:39:17;;;;;;;1.77;1.67;;;11.80;99.90;;;;;;10376239;28;20734;-82
2023/01/04 15:44:19;;;;;;;1.87;1.73;;;11.80;99.90;;;;;;10378518;28;20194;-79
2023/01/04 15:49:22;;;;;;;2.40;2.30;;;11.70;99.90;;;;;;10379241;28;20221;-79
2023/01/04 15:54:25;;;;;;;2.67;2.47;;;11.70;99.90;;;;;;10377118;28;20285;-78
2023/01/04 15:59:27;;;;;;;4.57;3.93;;;11.70;99.90;;;;;;10381327;28;20293;-79
2023/01/04 16:04:30;;;;;;;2.50;2.30;;;11.70;99.90;;;;;;10366795;28;20647;-79
2023/01/04 16:09:32;;;;;;;3.13;2.47;;;11.70;99.90;;;;;;10382575;28;20215;-79
2023/01/04 16:14:34;;;;;;;1.63;1.60;;;11.70;99.90;;;;;;10373657;28;20212;-80
2023/01/04 16:19:38;;;;;;;2.23;2.03;;;11.70;99.90;;;;;;10356571;28;20588;-80
2023/01/04 16:24:40;;;;;;;2.27;2.10;;;11.70;99.90;;;;;;10372520;28;20199;-79
2023/01/04 16:29:42;;;;;;;2.67;2.47;;;11.80;99.90;;;;;;10372123;28;20219;-78
2023/01/04 16:34:45;;;;;;;2.40;2.20;;;11.80;99.90;;;;;;10372671;28;20274;-79
2023/01/04 16:39:49;;;;;;;1.47;1.37;;;11.80;99.90;;;;;;10361066;28;20701;-78
2023/01/04 16:44:51;;;;;;;1.67;1.57;;;11.90;99.90;;;;;;10373440;28;20655;-79
2023/01/04 16:49:54;;;;;;;2.10;2.00;;;11.90;99.90;;;;;;10371071;28;20222;-78
2023/01/04 16:54:56;;;;;;;2.43;2.23;;;11.90;99.90;;;;;;10400627;28;20179;-81
2023/01/04 16:59:59;;;;;;;4.70;2.10;;;11.90;99.90;;;;;;10414136;28;20311;-83
2023/01/04 17:05:03;;;;;;;2.00;1.90;;;12.00;99.90;;;;;;10398043;28;20710;-79
2023/01/04 17:10:06;;;;;;;2.20;1.80;;;12.00;99.90;;;;;;10381077;28;20222;-82
2023/01/04 17:15:08;;;;;;;2.03;1.93;;;12.00;99.90;;;;;;10376105;28;20222;-81
2023/01/04 17:20:12;;;;;;;2.37;2.00;;;12.00;99.90;;;;;;10375176;28;20226;-81
2023/01/04 17:25:14;;;;;;;1.33;1.30;;;12.10;99.90;;;;;;10368536;28;20581;-80
2023/01/04 17:30:19;;;;;;;1.83;1.73;;;12.10;99.90;;;;;;10376936;28;20253;-81
2023/01/04 17:35:22;;;;;;;2.10;2.00;;;12.10;99.90;;;;;;10376082;28;20195;-80
2023/01/04 17:40:24;;;;;;;3.00;2.23;;;12.10;99.90;;;;;;10377604;28;20249;-81
2023/01/04 17:45:26;;;;;;;2.30;2.20;;;12.20;99.90;;;;;;10376301;28;20574;-78
2023/01/04 17:50:30;;;;;;;2.20;2.10;;;12.10;99.90;;;;;;10378055;28;20261;-81
2023/01/04 17:55:35;;;;;;;1.93;1.83;;;12.10;99.90;;;;;;10383170;28;20471;-79
2023/01/04 18:00:37;;;;;;;2.60;2.40;;;12.20;99.90;;;;;;10380759;28;20709;-80
2023/01/04 18:05:49;;;;;;;2.20;2.10;;;12.20;99.90;;;;;;10384065;28;20638;-81
2023/01/04 18:10:51;;;;;;;2.47;1.83;;;12.10;99.90;;;;;;10383403;28;20229;-81
2023/01/04 18:15:57;;;;;;;2.93;2.17;;;12.20;99.90;;;;;;10400033;28;20194;-80
2023/01/04 18:21:10;;;;;;;3.17;3.00;;;12.20;99.90;;;;;;10371902;28;20320;-81
2023/01/04 18:26:12;;;;;;;2.00;1.70;;;12.20;99.90;;;;;;10370942;28;20728;-82
2023/01/04 18:31:16;;;;;;;2.07;2.00;;;12.10;99.90;;;;;;10385402;28;20277;-82
2023/01/04 18:36:20;;;;;;;4.67;2.10;;;12.10;99.90;;;;;;10389047;28;20601;-80
2023/01/04 18:41:23;;;;;;;2.63;2.43;;;12.10;99.90;;;;;;10383728;28;20266;-77
2023/01/04 18:46:25;;;;;;;2.07;1.97;;;12.10;99.90;;;;;;10354864;28;20195;-79
2023/01/04 18:51:29;;;;;;;2.20;2.10;;;12.10;99.90;;;;;;10376600;28;20218;-79
2023/01/04 18:56:31;;;;;;;1.90;1.80;;;12.10;99.90;;;;;;10370299;28;20658;-79
2023/01/04 19:01:34;;;;;;;2.80;2.70;;;12.10;99.90;;;;;;10374013;28;20678;-78
2023/01/04 19:06:39;;;;;;;1.73;1.50;;;12.10;99.90;;;;;;10371169;28;20195;-82
2023/01/04 19:11:43;;;;;;;2.77;1.80;;;12.10;99.90;;;;;;10372585;28;20701;-80
2023/01/04 19:16:45;;;;;;;1.90;1.80;;;12.10;99.90;;;;;;10353552;28;20204;-81
2023/01/04 19:21:48;;;;;;;1.83;1.73;;;12.10;99.90;;;;;;10372639;28;20565;-83
2023/01/04 19:26:51;;;;;;;1.80;1.70;;;12.10;99.90;;;;;;10372168;28;20199;-80
2023/01/04 19:31:53;;;;;;;1.60;1.50;;;12.10;99.90;;;;;;10345253;28;20227;-81
2023/01/04 19:36:56;;;;;;;1.80;1.70;;;12.10;99.90;;;;;;10375914;28;20273;-80
2023/01/04 19:41:58;;;;;;;1.73;1.73;;;12.10;99.90;;;;;;10379049;28;20737;-81
2023/01/04 19:47:00;;;;;;;1.00;1.00;;;12.10;99.90;;;;;;10380901;28;20285;-83
2023/01/04 19:52:04;;;;;;;2.50;2.40;;;12.10;99.90;;;;;;10379306;28;20860;-83
2023/01/04 19:57:06;;;;;;;3.63;1.90;;;12.10;99.90;;;;;;10379943;28;20230;-83
2023/01/04 20:02:10;;;;;;;2.23;1.90;;;12.10;99.90;;;;;;10376256;28;20211;-82
2023/01/04 20:07:13;;;;;;;1.97;1.87;;;12.10;99.90;;;;;;10382544;28;20203;-81
2023/01/04 20:12:15;;;;;;;1.20;0.97;;;12.10;99.90;;;;;;10368211;28;20226;-82
2023/01/04 20:17:17;;;;;;;1.57;1.50;;;12.10;99.90;;;;;;10383008;28;20229;-79
2023/01/04 20:22:20;;;;;;;2.57;2.47;;;12.10;99.90;;;;;;10394043;28;20340;-79
2023/01/04 20:27:22;;;;;;;1.70;1.70;;;12.10;99.90;;;;;;10384875;28;20206;-79
2023/01/04 20:32:25;;;;;;;1.90;1.80;;;12.00;99.90;;;;;;10380012;28;20717;-80
2023/01/04 20:37:28;;;;;;;1.60;1.60;;;12.10;99.90;;;;;;10375400;28;20679;-81
2023/01/04 20:47:50;;;;;;;2.20;2.10;;;12.00;99.90;;;;;;10394270;28;20668;-82
2023/01/04 20:52:53;;;;;;;1.80;1.80;;;12.00;99.90;;;;;;10373836;28;20230;-81
2023/01/04 20:57:55;;;;;;;1.90;1.80;;;12.10;99.90;;;;;;10372471;28;20570;-80
2023/01/04 21:02:57;;;;;;;1.80;1.80;;;12.10;99.90;;;;;;10373323;28;20277;-80
2023/01/04 21:08:01;;;;;;;2.20;2.10;;;12.00;99.90;;;;;;10376533;28;20642;-82
2023/01/04 21:13:03;;;;;;;2.30;1.70;;;12.00;99.90;;;;;;10380076;28;20227;-81
2023/01/04 21:18:06;;;;;;;2.00;1.87;;;12.00;99.90;;;;;;10378056;28;20194;-82
2023/01/04 21:23:13;;;;;;;1.97;1.87;;;12.00;99.90;;;;;;10374721;28;20238;-81
2023/01/04 21:28:17;;;;;;;1.97;1.87;;;12.10;99.90;;;;;;10375652;28;20198;-82
2023/01/04 21:33:19;;;;;;;2.10;2.00;;;12.10;99.90;;;;;;10376931;28;20268;-82
2023/01/04 21:38:22;;;;;;;1.97;1.90;;;12.10;99.90;;;;;;10375727;28;20634;-82
2023/01/04 21:43:25;;;;;;;2.00;1.90;;;12.10;99.90;;;;;;10381138;28;20631;-82
2023/01/04 21:48:27;;;;;;;2.27;2.10;;;12.10;99.90;;;;;;10385246;28;20233;-81
2023/01/04 21:53:31;;;;;;;2.23;2.13;;;12.20;99.90;;;;;;10385856;28;20230;-79
2023/01/04 21:58:33;;;;;;;2.20;2.10;;;12.00;99.90;;;;;;10382966;28;20226;-82
2023/01/04 22:03:35;;;;;;;2.03;1.93;;;12.00;99.90;;;;;;10398301;28;20385;-79
2023/01/04 22:08:41;;;;;;;2.20;2.10;;;12.10;99.90;;;;;;10384169;28;20198;-82
2023/01/04 22:13:44;;;;;;;2.40;2.20;;;12.00;99.90;;;;;;10378370;28;20219;-81
2023/01/04 22:18:47;;;;;;;2.03;1.93;;;12.00;99.90;;;;;;10375526;28;20285;-82
2023/01/04 22:23:51;;;;;;;1.80;1.70;;;12.10;99.90;;;;;;10388952;28;20195;-81
2023/01/04 22:28:53;;;;;;;2.10;2.00;;;12.10;99.90;;;;;;10404173;28;20260;-82
2023/01/04 22:33:55;;;;;;;1.90;1.80;;;12.10;99.90;;;;;;10386311;28;20626;-82
2023/01/04 22:38:58;;;;;;;1.80;1.70;;;12.00;99.90;;;;;;10385527;28;20262;-81
2023/01/04 22:44:03;;;;;;;1.93;1.83;;;12.10;99.90;;;;;;10394385;28;20236;-82
2023/01/04 22:49:05;;;;;;;1.97;1.87;;;12.00;99.90;;;;;;10431718;28;20236;-79
2023/01/04 22:54:09;;;;;;;1.90;1.90;;;12.00;99.90;;;;;;10405643;28;20221;-82
2023/01/04 22:59:11;;;;;;;2.50;1.60;;;12.00;99.90;;;;;;10375805;28;20675;-82
2023/01/04 23:04:16;;;;;;;1.80;1.70;;;12.10;99.90;;;;;;10421577;28;20202;-82
2023/01/04 23:09:19;;;;;;;2.20;2.10;;;12.10;99.90;;;;;;10397184;28;20701;-83
2023/01/04 23:14:21;;;;;;;2.27;2.17;;;12.10;99.90;;;;;;10408012;28;20226;-82
2023/01/04 23:19:23;;;;;;;2.20;2.00;;;12.10;99.90;;;;;;10400163;28;20225;-81
2023/01/04 23:24:27;;;;;;;2.37;2.20;;;12.10;99.90;;;;;;10397370;28;20269;-82
2023/01/04 23:29:29;;;;;;;1.70;1.70;;;12.00;99.90;;;;;;10363385;28;20229;-80
2023/01/04 23:34:31;;;;;;;1.83;1.73;;;12.00;99.90;;;;;;10380139;28;20688;-82
2023/01/04 23:39:34;;;;;;;1.93;1.93;;;12.00;99.90;;;;;;10380056;28;20233;-80
2023/01/04 23:44:36;;;;;;;2.20;2.10;;;12.10;99.90;;;;;;10382446;28;20191;-82
2023/01/04 23:49:39;;;;;;;2.00;1.90;;;12.10;99.90;;;;;;10363625;28;20305;-82
2023/01/04 23:54:42;;;;;;;2.23;2.13;;;12.10;99.90;;;;;;10382070;28;20215;-82
2023/01/04 23:59:44;;;;;;;2.03;1.93;;;12.20;99.90;;;;;;10392132;28;20757;-80
